Clearwater Air Park

About
Name: Clearwater Air Park
Identifier:  CLW/KCLW
Owner:  City of Clearwater
Public/Private:  Public
Local Time:  22. Sep 05:56 EDT
Description: Coordinates: 27°58′36″N 082°45′31″W / 27.97667°N 82.75861°W / 27.97667; -82.75861
Source: Wikipedia
Location
Runways
Identifier Length (m/ft) Surface
16/34 4,108/4,108 Asphalt
Statistics
Flights per Day:
0 flights
Distance: 317km (197mi)
Flights delayed:
0% (0 flights per day delayed)
Delay Average: 53 minutes
Current Weather
 22 C (Humidity: 83%)
  3kt (5km/h / 3mph) from 60°
  16km (10 mi.)
 
 METAR KCLW 220935Z AUTO 06003KT 10SM CLR 22/19 A3007 RMK AO2 PWINO

Current Delays

Departures
N/A
Arrivals
N/A

Destinations

Top Destinations
Airport Flights
per week
Seats
per week
  Boca Raton (BCT) 0 - 0 0

Airlines & Planes

Top Airlines
Airline Flights
per Day
Seats
per Day
Bearing Supplies Ltd 0 -
Top Plane Types
Model Flights Seats
Pilatus PC-12 0.0/day - 0